地図

経路データ

SID SEASON NUMBER BASIN SUBBASIN NAME ISO_TIME NATURE LAT LON WMO_WIND WMO_PRES WMO_AGENCY TRACK_TYPE DIST2LAND LANDFALL IFLAG USA_AGENCY USA_ATCF_ID USA_LAT USA_LON USA_RECORD USA_STATUS USA_WIND USA_PRES USA_SSHS USA_R34_NE USA_R34_SE USA_R34_SW USA_R34_NW USA_R50_NE USA_R50_SE USA_R50_SW USA_R50_NW USA_R64_NE USA_R64_SE USA_R64_SW USA_R64_NW USA_POCI USA_ROCI USA_RMW USA_EYE TOKYO_LAT TOKYO_LON TOKYO_GRADE TOKYO_WIND TOKYO_PRES TOKYO_R50_DIR TOKYO_R50_LONG TOKYO_R50_SHORT TOKYO_R30_DIR TOKYO_R30_LONG TOKYO_R30_SHORT TOKYO_LAND CMA_LAT CMA_LON CMA_CAT CMA_WIND CMA_PRES HKO_LAT HKO_LON HKO_CAT HKO_WIND HKO_PRES NEWDELHI_LAT NEWDELHI_LON NEWDELHI_GRADE NEWDELHI_WIND NEWDELHI_PRES NEWDELHI_CI NEWDELHI_DP NEWDELHI_POCI REUNION_LAT REUNION_LON REUNION_TYPE REUNION_WIND REUNION_PRES REUNION_TNUM REUNION_CI REUNION_RMW REUNION_R34_NE REUNION_R34_SE REUNION_R34_SW REUNION_R34_NW REUNION_R50_NE REUNION_R50_SE REUNION_R50_SW REUNION_R50_NW REUNION_R64_NE REUNION_R64_SE REUNION_R64_SW REUNION_R64_NW BOM_LAT BOM_LON BOM_TYPE BOM_WIND BOM_PRES BOM_TNUM BOM_CI BOM_RMW BOM_R34_NE BOM_R34_SE BOM_R34_SW BOM_R34_NW BOM_R50_NE BOM_R50_SE BOM_R50_SW BOM_R50_NW BOM_R64_NE BOM_R64_SE BOM_R64_SW BOM_R64_NW BOM_ROCI BOM_POCI BOM_EYE BOM_POS_METHOD BOM_PRES_METHOD NADI_LAT NADI_LON NADI_CAT NADI_WIND NADI_PRES WELLINGTON_LAT WELLINGTON_LON WELLINGTON_WIND WELLINGTON_PRES DS824_LAT DS824_LON DS824_STAGE DS824_WIND DS824_PRES TD9636_LAT TD9636_LON TD9636_STAGE TD9636_WIND TD9636_PRES TD9635_LAT TD9635_LON TD9635_WIND TD9635_PRES TD9635_ROCI NEUMANN_LAT NEUMANN_LON NEUMANN_CLASS NEUMANN_WIND NEUMANN_PRES MLC_LAT MLC_LON MLC_CLASS MLC_WIND MLC_PRES USA_GUST BOM_GUST BOM_GUST_PER REUNION_GUST REUNION_GUST_PER USA_SEAHGT USA_SEARAD_NE USA_SEARAD_SE USA_SEARAD_SW USA_SEARAD_NW STORM_SPEED STORM_DIR
1941179N21090 1941 30 NI BB NOT_NAMED 1941-06-28 00:00:00 TS 21.0000 89.8000 main 88 84 _________O____ -1 21.0000 89.8000 TC 30 2 274
1941179N21090 1941 30 NI BB NOT_NAMED 1941-06-28 03:00:00 TS 21.0067 89.6933 main 84 80 _________PO___ -1 21.0100 89.6400 TC 30 21.0000 89.8000 1 2 267
1941179N21090 1941 30 NI BB NOT_NAMED 1941-06-28 06:00:00 TS 20.9901 89.5650 main 80 78 _________OP___ -1 21.0000 89.5000 TC 30 20.9751 89.6625 1 2 257
1941179N21090 1941 30 NI BB NOT_NAMED 1941-06-28 09:00:00 TS 20.9543 89.4514 main 78 73 _________PP___ -1 20.9575 89.3925 TC 30 20.9502 89.5299 1 2 249
1941179N21090 1941 30 NI BB NOT_NAMED 1941-06-28 12:00:00 TS 20.9126 89.3537 main 84 80 _________OP___ -1 20.9000 89.3000 TC 30 20.9251 89.4075 1 2 246
1941179N21090 1941 30 NI BB NOT_NAMED 1941-06-28 15:00:00 TS 20.8712 89.2500 main 80 78 _________PO___ -1 20.8425 89.2000 TC 30 20.9000 89.3000 1 2 248
1941179N21090 1941 30 NI BB NOT_NAMED 1941-06-28 18:00:00 TS 20.8374 89.1545 main 90 89 _________OP___ -1 20.8000 89.1000 TC 30 20.8749 89.2091 1 2 254
1941179N21090 1941 30 NI BB NOT_NAMED 1941-06-28 21:00:00 TS 20.8249 89.0688 main 89 89 _________PP___ -1 20.8000 89.0150 TC 30 20.8498 89.1226 1 2 262
1941179N21090 1941 30 NI BB NOT_NAMED 1941-06-29 00:00:00 TS 20.8124 88.9624 main 89 89 _________OP___ -1 20.8000 88.9000 TC 30 20.8248 89.0247 1 2 259
1941179N21090 1941 30 NI BB NOT_NAMED 1941-06-29 03:00:00 TS 20.7750 88.8075 main 90 90 _________PO___ -1 20.7500 88.7150 TC 30 20.8000 88.9000 1 3 257
1941179N21090 1941 30 NI BB NOT_NAMED 1941-06-29 06:00:00 TS 20.7375 88.6184 main 101 100 _________OP___ -1 20.7000 88.5000 TC 30 20.7750 88.7369 1 4 262
1941179N21090 1941 30 NI BB NOT_NAMED 1941-06-29 09:00:00 TS 20.7250 88.4263 main 100 100 _________PP___ -1 20.6999 88.3076 TC 30 20.7500 88.5450 1 4 266
1941179N21090 1941 30 NI BB NOT_NAMED 1941-06-29 12:00:00 TS 20.7125 88.2153 main 100 100 _________OP___ -1 20.7000 88.1000 TC 30 20.7249 88.3306 1 4 263
1941179N21090 1941 30 NI BB NOT_NAMED 1941-06-29 15:00:00 TS 20.6750 87.9787 main 102 83 _________PO___ -1 20.6500 87.8574 TC 30 20.7000 88.1000 1 4 259
1941179N21090 1941 30 NI BB NOT_NAMED 1941-06-29 18:00:00 TS 20.6305 87.7828 main 83 63 _________OP___ -1 20.6000 87.6000 TC 30 20.6610 87.9656 1 3 259
1941179N21090 1941 30 NI BB NOT_NAMED 1941-06-29 21:00:00 TS 20.6080 87.6246 main 63 33 _________PP___ -1 20.5917 87.4475 TC 30 20.6244 87.8018 1 4 266
1941179N21090 1941 30 NI BB NOT_NAMED 1941-06-30 00:00:00 TS 20.6004 87.3186 main 33 0 _________OP___ -1 20.6000 87.1000 TC 30 20.6007 87.5372 1 9 269
1941179N21090 1941 30 NI BB NOT_NAMED 1941-06-30 03:00:00 TS 20.5929 86.6948 main 0 0 _________PO___ -1 20.5858 86.2897 TC 30 20.6000 87.1000 1 14 270
1941179N21090 1941 30 NI BB NOT_NAMED 1941-06-30 06:00:00 TS 20.5973 85.8376 main 0 0 _________OP___ -1 20.6000 85.3000 TC 30 20.5947 86.3752 1 16 272
1941179N21090 1941 30 NI BB NOT_NAMED 1941-06-30 09:00:00 TS 20.6456 84.9554 main 0 0 _________PP___ -1 20.6772 84.4276 TC 30 20.6140 85.4832 1 17 275
1941179N21090 1941 30 NI BB NOT_NAMED 1941-06-30 12:00:00 TS 20.7379 84.0624 main 0 0 _________OP___ -1 20.8000 83.6000 TC 30 20.6758 84.5248 1 16 277
1941179N21090 1941 30 NI BB NOT_NAMED 1941-06-30 15:00:00 TS 20.8523 83.2097 main 0 0 _________PO___ -1 20.9047 82.8195 TC 30 20.8000 83.6000 1 16 282
1941179N21090 1941 30 NI BB NOT_NAMED 1941-06-30 18:00:00 TS 21.0674 82.4274 main 0 0 _________OP___ -1 21.1000 82.1000 TC 30 21.0347 82.7548 1 16 291
1941179N21090 1941 30 NI BB NOT_NAMED 1941-06-30 21:00:00 TS 21.4178 81.6623 main 0 0 _________PP___ -1 21.5077 81.3535 TC 30 21.3280 81.9711 1 15 299
1941179N21090 1941 30 NI BB NOT_NAMED 1941-07-01 00:00:00 TS 21.7660 81.0507 main 0 0 _________OP___ -1 21.9000 80.8000 TC 30 21.6321 81.3015 1 10 302
1941179N21090 1941 30 NI BB NOT_NAMED 1941-07-01 03:00:00 TS 21.9685 80.7084 main 0 0 _________PO___ -1 22.0370 80.6169 TC 30 21.9000 80.8000 1 6 305
1941179N21090 1941 30 NI BB NOT_NAMED 1941-07-01 06:00:00 TS 22.0831 80.5609 main 0 0 _________OP___ -1 22.1000 80.6000 TC 30 22.0662 80.5219 1 3 317
1941179N21090 1941 30 NI BB NOT_NAMED 1941-07-01 09:00:00 TS 22.2214 80.4554 main 0 0 _________PP___ -1 22.2500 80.5000 TC 30 22.1929 80.4107 1 3 330
1941179N21090 1941 30 NI BB NOT_NAMED 1941-07-01 12:00:00 TS 22.3491 80.3971 main 0 0 _________OP___ -1 22.4000 80.4000 TC 30 22.2982 80.3942 1 3 336
1941179N21090 1941 30 NI BB NOT_NAMED 1941-07-01 15:00:00 TS 22.4500 80.3462 main 0 0 _________PO___ -1 22.5000 80.2925 TC 30 22.4000 80.4000 1 3 329
1941179N21090 1941 30 NI BB NOT_NAMED 1941-07-01 18:00:00 TS 22.5625 80.2569 main 0 0 _________OP___ -1 22.6000 80.2000 TC 30 22.5250 80.3137 1 3 329
1941179N21090 1941 30 NI BB NOT_NAMED 1941-07-01 21:00:00 TS 22.7000 80.1887 main 0 0 _________PP___ -1 22.7500 80.1425 TC 30 22.6500 80.2349 1 3 338
1941179N21090 1941 30 NI BB NOT_NAMED 1941-07-02 00:00:00 TS 22.8375 80.1319 main 0 0 _________OP___ -1 22.9000 80.1000 TC 30 22.7750 80.1637 1 3 337
1941179N21090 1941 30 NI BB NOT_NAMED 1941-07-02 03:00:00 TS 22.9500 80.0750 main 0 0 _________PO___ -1 23.0000 80.0500 TC 30 22.9000 80.1000 1 3 336
1941179N21090 1941 30 NI BB NOT_NAMED 1941-07-02 06:00:00 TS 23.0665 80.0234 main 0 0 _________OP___ -1 23.1000 80.0000 TC 30 23.0331 80.0468 1 3 342
1941179N21090 1941 30 NI BB NOT_NAMED 1941-07-02 09:00:00 TS 23.2075 79.9750 main 0 0 _________PP___ -1 23.2500 79.9500 TC 30 23.1650 79.9999 1 3 343
1941179N21090 1941 30 NI BB NOT_NAMED 1941-07-02 12:00:00 TS 23.3447 79.9265 main 0 0 _________OP___ -1 23.4000 79.9000 TC 30 23.2893 79.9531 1 3 340
1941179N21090 1941 30 NI BB NOT_NAMED 1941-07-02 15:00:00 TS 23.4575 79.8787 main 0 0 _________PO___ -1 23.5150 79.8575 TC 30 23.4000 79.9000 1 2 338
1941179N21090 1941 30 NI BB NOT_NAMED 1941-07-02 18:00:00 TS 23.5385 79.8362 main 0 0 _________OP___ -1 23.6000 79.8000 TC 30 23.4769 79.8725 1 2 326
1941179N21090 1941 30 NI BB NOT_NAMED 1941-07-02 21:00:00 TS 23.5922 79.7847 main 0 0 _________PP___ -1 23.6424 79.7374 TC 30 23.5420 79.8319 1 2 308
1941179N21090 1941 30 NI BB NOT_NAMED 1941-07-03 00:00:00 TS 23.6556 79.6752 main 0 0 _________OP___ -1 23.7000 79.6000 TC 30 23.6111 79.7504 1 3 301
1941179N21090 1941 30 NI BB NOT_NAMED 1941-07-03 03:00:00 TS 23.7675 79.4688 main 0 0 _________PO___ -1 23.8350 79.3376 TC 30 23.7000 79.6000 1 5 300
1941179N21090 1941 30 NI BB NOT_NAMED 1941-07-03 06:00:00 TS 23.9163 79.1776 main 0 0 _________OP___ -1 24.0000 79.0000 TC 30 23.8327 79.3553 1 6 298
1941179N21090 1941 30 NI BB NOT_NAMED 1941-07-03 09:00:00 TS 24.0676 78.8489 main 0 0 _________PP___ -1 24.1500 78.6574 TC 30 23.9852 79.0404 1 7 296
1941179N21090 1941 30 NI BB NOT_NAMED 1941-07-03 12:00:00 TS 24.2225 78.4901 main 0 0 _________OP___ -1 24.3000 78.3000 TC 30 24.1451 78.6802 1 7 295
1941179N21090 1941 30 NI BB NOT_NAMED 1941-07-03 15:00:00 TS 24.3787 78.1287 main 0 0 _________PO___ -1 24.4574 77.9575 TC 30 24.3000 78.3000 1 7 294
1941179N21090 1941 30 NI AS NOT_NAMED 1941-07-03 18:00:00 TS 24.5089 77.7832 main 0 0 _________OP___ -1 24.6000 77.6000 TC 30 24.4405 77.9207 1 7 291
1941179N21090 1941 30 NI AS NOT_NAMED 1941-07-03 21:00:00 TS 24.6249 77.4112 main 0 0 _________PP___ -1 24.7103 77.2101 TC 30 24.5680 77.5452 1 7 288
1941179N21090 1941 30 NI AS NOT_NAMED 1941-07-04 00:00:00 TS 24.7243 77.0481 main 0 0 _________OP___ -1 24.8000 76.8000 TC 30 24.6864 77.1722 1 6 287
1941179N21090 1941 30 NI AS NOT_NAMED 1941-07-04 03:00:00 NR 24.8000 76.8000 main 0 __________O___ -1 TC 24.8000 76.8000 1 5 289

IBTrACS Databaseについて

本データベースは、米国NOAAが公開する1842年以降の世界の熱帯低気圧のベストトラックデータアーカイブInternational Best Track Archive for Climate Stewardship (IBTrACS)を、ウェブで閲覧しやすい形式に変換したものです。

最終更新日:2021-10-08